Fort Chaffee, Arkansas
Current Conditions -  °F | °C
As of 6:53 PM on Tuesday 21 Oct 2014 (Local Time) from KFSM Reporting Station
Clear Clear  
Wind Chill: 73°   Ceiling: Unl
Heat Index: 73°   Visibility: 10mi
Dew Point: 59°   Wind: 5mph
Humidity: 61%   Direction: 120°ESE
Pressure: 30.03"   Gusts: NA
Location:  35.2393°N, 94.1304°W
Report Text: KFSM 212353Z 12004KT 10SM R25/2000V3500FT CLR 23/15 A3003 RMK AO2 SLP166 T02280150 10272 20222 55002
Loading
Personal Weather Stations






























Interactive Weather Map
Tropical Storm Tracking
New forecast layout! Learn more

10-Day Weather Forecast

Advertisements
Track Severe Weather on mobile